sensor_id;sensor_type;location;lat;lon;timestamp;pressure;altitude;pressure_sealevel;temperature;humidity
72486;BME280;60509;47.308;-122.428;2023-05-02T00:01:37;100046.06;;;16.25;29.20
72486;BME280;60509;47.308;-122.428;2023-05-02T00:04:03;100049.40;;;16.02;29.08
72486;BME280;60509;47.308;-122.428;2023-05-02T00:06:30;100044.98;;;16.11;29.47
72486;BME280;60509;47.308;-122.428;2023-05-02T00:08:55;100045.91;;;14.35;31.17
72486;BME280;60509;47.308;-122.428;2023-05-02T00:11:21;100045.03;;;14.11;30.25
72486;BME280;60509;47.308;-122.428;2023-05-02T00:13:47;100045.46;;;14.37;31.59
72486;BME280;60509;47.308;-122.428;2023-05-02T00:16:13;100046.59;;;15.05;30.76
72486;BME280;60509;47.308;-122.428;2023-05-02T00:18:39;100047.04;;;15.29;29.65
72486;BME280;60509;47.308;-122.428;2023-05-02T00:21:05;100047.52;;;15.20;30.04
72486;BME280;60509;47.308;-122.428;2023-05-02T00:23:30;100045.63;;;14.86;30.59
72486;BME280;60509;47.308;-122.428;2023-05-02T00:25:56;100037.51;;;16.03;29.77
72486;BME280;60509;47.308;-122.428;2023-05-02T00:28:22;100041.33;;;15.51;29.85
72486;BME280;60509;47.308;-122.428;2023-05-02T00:30:48;100045.65;;;14.96;28.53
72486;BME280;60509;47.308;-122.428;2023-05-02T00:33:14;100044.32;;;15.05;29.97
72486;BME280;60509;47.308;-122.428;2023-05-02T00:35:40;100038.07;;;16.05;30.04
72486;BME280;60509;47.308;-122.428;2023-05-02T00:38:06;100033.00;;;15.48;30.05
72486;BME280;60509;47.308;-122.428;2023-05-02T00:40:42;100031.62;;;15.66;29.73
72486;BME280;60509;47.308;-122.428;2023-05-02T00:42:58;100031.50;;;14.94;30.44
72486;BME280;60509;47.308;-122.428;2023-05-02T00:45:24;100023.47;;;15.47;30.61
72486;BME280;60509;47.308;-122.428;2023-05-02T00:47:50;100024.93;;;16.25;30.38
72486;BME280;60509;47.308;-122.428;2023-05-02T00:50:16;100025.86;;;14.83;29.29
72486;BME280;60509;47.308;-122.428;2023-05-02T00:52:42;100027.21;;;13.36;31.15
72486;BME280;60509;47.308;-122.428;2023-05-02T00:55:08;100028.70;;;14.63;30.91
72486;BME280;60509;47.308;-122.428;2023-05-02T00:57:33;100023.84;;;15.12;30.75
72486;BME280;60509;47.308;-122.428;2023-05-02T01:00:00;100017.16;;;15.68;30.14
72486;BME280;60509;47.308;-122.428;2023-05-02T01:02:33;100008.60;;;15.46;30.14
72486;BME280;60509;47.308;-122.428;2023-05-02T01:05:01;100011.86;;;14.87;30.65
72486;BME280;60509;47.308;-122.428;2023-05-02T01:05:13;100010.65;;;15.09;30.78
72486;BME280;60509;47.308;-122.428;2023-05-02T01:07:45;100005.37;;;15.38;30.33
72486;BME280;60509;47.308;-122.428;2023-05-02T01:10:03;100014.21;;;14.51;31.00
72486;BME280;60509;47.308;-122.428;2023-05-02T01:12:27;100015.39;;;15.06;30.28
72486;BME280;60509;47.308;-122.428;2023-05-02T01:14:52;100014.69;;;14.69;30.77
72486;BME280;60509;47.308;-122.428;2023-05-02T01:17:15;100010.48;;;15.23;30.28
72486;BME280;60509;47.308;-122.428;2023-05-02T01:19:44;100006.89;;;15.64;29.94
72486;BME280;60509;47.308;-122.428;2023-05-02T01:22:07;100005.07;;;16.31;29.85
72486;BME280;60509;47.308;-122.428;2023-05-02T01:24:36;100002.65;;;15.79;30.03
72486;BME280;60509;47.308;-122.428;2023-05-02T01:27:10;99997.65;;;14.19;29.47
72486;BME280;60509;47.308;-122.428;2023-05-02T01:29:23;100000.27;;;13.87;30.95
72486;BME280;60509;47.308;-122.428;2023-05-02T01:31:50;99997.74;;;12.10;31.39
72486;BME280;60509;47.308;-122.428;2023-05-02T01:34:17;100001.49;;;14.19;31.25
72486;BME280;60509;47.308;-122.428;2023-05-02T01:36:44;100005.65;;;14.55;30.72
72486;BME280;60509;47.308;-122.428;2023-05-02T01:39:09;100006.30;;;15.28;30.37
72486;BME280;60509;47.308;-122.428;2023-05-02T01:41:34;100005.03;;;15.87;30.09
72486;BME280;60509;47.308;-122.428;2023-05-02T01:44:02;100004.79;;;15.88;30.33
72486;BME280;60509;47.308;-122.428;2023-05-02T01:46:26;100002.31;;;15.86;30.34
72486;BME280;60509;47.308;-122.428;2023-05-02T01:48:52;100003.12;;;16.20;30.28
72486;BME280;60509;47.308;-122.428;2023-05-02T01:51:18;100007.95;;;16.30;30.31
72486;BME280;60509;47.308;-122.428;2023-05-02T01:53:44;100010.01;;;16.09;30.33
72486;BME280;60509;47.308;-122.428;2023-05-02T01:56:09;100007.14;;;15.95;30.68
72486;BME280;60509;47.308;-122.428;2023-05-02T01:58:36;100010.20;;;16.09;30.62
72486;BME280;60509;47.308;-122.428;2023-05-02T02:01:01;100016.76;;;16.44;30.35
72486;BME280;60509;47.308;-122.428;2023-05-02T02:03:29;100013.12;;;16.08;30.78
72486;BME280;60509;47.308;-122.428;2023-05-02T02:05:54;100005.68;;;16.00;30.94
72486;BME280;60509;47.308;-122.428;2023-05-02T02:08:19;100005.57;;;15.75;31.12
72486;BME280;60509;47.308;-122.428;2023-05-02T02:10:53;100008.04;;;15.58;31.24
72486;BME280;60509;47.308;-122.428;2023-05-02T02:13:17;100012.58;;;15.83;31.11
72486;BME280;60509;47.308;-122.428;2023-05-02T02:15:38;100014.74;;;15.58;31.38
72486;BME280;60509;47.308;-122.428;2023-05-02T02:18:08;100020.15;;;16.00;31.41
72486;BME280;60509;47.308;-122.428;2023-05-02T02:20:30;100016.92;;;15.91;31.21
72486;BME280;60509;47.308;-122.428;2023-05-02T02:22:56;100014.60;;;15.73;31.30
72486;BME280;60509;47.308;-122.428;2023-05-02T02:25:21;100014.13;;;16.07;31.18
72486;BME280;60509;47.308;-122.428;2023-05-02T02:27:47;100010.65;;;16.05;31.22
72486;BME280;60509;47.308;-122.428;2023-05-02T02:30:13;100014.95;;;16.55;30.80
72486;BME280;60509;47.308;-122.428;2023-05-02T02:32:39;100017.48;;;16.46;30.72
72486;BME280;60509;47.308;-122.428;2023-05-02T02:35:06;100022.56;;;15.93;31.51
72486;BME280;60509;47.308;-122.428;2023-05-02T02:37:33;100028.70;;;16.05;31.48
72486;BME280;60509;47.308;-122.428;2023-05-02T02:40:03;100032.87;;;15.69;31.59
72486;BME280;60509;47.308;-122.428;2023-05-02T02:42:31;100038.43;;;15.27;31.81
72486;BME280;60509;47.308;-122.428;2023-05-02T02:44:55;100045.23;;;15.46;32.00
72486;BME280;60509;47.308;-122.428;2023-05-02T02:47:22;100045.51;;;15.27;32.11
72486;BME280;60509;47.308;-122.428;2023-05-02T02:49:48;100041.53;;;15.66;32.00
72486;BME280;60509;47.308;-122.428;2023-05-02T02:52:12;100038.48;;;15.73;32.11
72486;BME280;60509;47.308;-122.428;2023-05-02T02:54:40;100032.59;;;15.36;32.25
72486;BME280;60509;47.308;-122.428;2023-05-02T02:57:03;100027.19;;;15.68;31.92
72486;BME280;60509;47.308;-122.428;2023-05-02T02:59:28;100031.37;;;15.62;32.17
72486;BME280;60509;47.308;-122.428;2023-05-02T03:01:59;100034.30;;;15.44;32.39
72486;BME280;60509;47.308;-122.428;2023-05-02T03:04:18;100030.08;;;15.62;32.02
72486;BME280;60509;47.308;-122.428;2023-05-02T03:06:42;100023.74;;;15.71;31.87
72486;BME280;60509;47.308;-122.428;2023-05-02T03:09:14;100021.27;;;15.81;31.62
72486;BME280;60509;47.308;-122.428;2023-05-02T03:11:34;100024.06;;;15.68;32.10
72486;BME280;60509;47.308;-122.428;2023-05-02T03:14:00;100027.03;;;15.50;32.25
72486;BME280;60509;47.308;-122.428;2023-05-02T03:16:33;100023.08;;;15.57;32.04
72486;BME280;60509;47.308;-122.428;2023-05-02T03:18:52;100015.68;;;15.84;31.69
72486;BME280;60509;47.308;-122.428;2023-05-02T03:21:18;100005.35;;;15.51;31.99
72486;BME280;60509;47.308;-122.428;2023-05-02T03:23:44;100000.82;;;15.42;31.99
72486;BME280;60509;47.308;-122.428;2023-05-02T03:26:10;99994.20;;;15.72;31.61
72486;BME280;60509;47.308;-122.428;2023-05-02T03:28:36;99999.22;;;15.41;32.00
72486;BME280;60509;47.308;-122.428;2023-05-02T03:31:02;100008.55;;;15.54;31.91
72486;BME280;60509;47.308;-122.428;2023-05-02T03:33:28;100015.97;;;15.16;31.94
72486;BME280;60509;47.308;-122.428;2023-05-02T03:35:54;100015.10;;;15.44;31.71
72486;BME280;60509;47.308;-122.428;2023-05-02T03:38:21;100009.17;;;15.25;31.83
72486;BME280;60509;47.308;-122.428;2023-05-02T03:40:46;100012.29;;;15.40;31.96
72486;BME280;60509;47.308;-122.428;2023-05-02T03:43:12;100006.95;;;15.35;31.88
72486;BME280;60509;47.308;-122.428;2023-05-02T03:45:38;100008.44;;;15.25;32.05
72486;BME280;60509;47.308;-122.428;2023-05-02T03:48:04;100006.16;;;15.32;32.25
72486;BME280;60509;47.308;-122.428;2023-05-02T03:50:30;100006.76;;;15.85;32.02
72486;BME280;60509;47.308;-122.428;2023-05-02T03:52:56;100013.30;;;15.53;32.25
72486;BME280;60509;47.308;-122.428;2023-05-02T03:55:22;100010.52;;;15.53;32.06
72486;BME280;60509;47.308;-122.428;2023-05-02T03:57:48;100014.49;;;15.55;32.06
72486;BME280;60509;47.308;-122.428;2023-05-02T04:00:14;100031.33;;;15.16;32.47
72486;BME280;60509;47.308;-122.428;2023-05-02T04:02:39;100043.88;;;15.44;32.22
72486;BME280;60509;47.308;-122.428;2023-05-02T04:05:06;100041.91;;;15.65;32.03
72486;BME280;60509;47.308;-122.428;2023-05-02T04:07:31;100035.07;;;15.56;32.52
72486;BME280;60509;47.308;-122.428;2023-05-02T04:09:57;100028.22;;;15.65;32.31
72486;BME280;60509;47.308;-122.428;2023-05-02T04:12:23;100022.84;;;15.50;32.60
72486;BME280;60509;47.308;-122.428;2023-05-02T04:14:49;100021.63;;;15.82;32.58
72486;BME280;60509;47.308;-122.428;2023-05-02T04:17:15;100026.23;;;15.41;33.00
72486;BME280;60509;47.308;-122.428;2023-05-02T04:19:42;100022.46;;;15.73;33.19
72486;BME280;60509;47.308;-122.428;2023-05-02T04:22:07;100017.98;;;15.81;33.50
72486;BME280;60509;47.308;-122.428;2023-05-02T04:24:33;100013.35;;;15.56;33.63
72486;BME280;60509;47.308;-122.428;2023-05-02T04:26:59;100012.06;;;15.93;33.72
72486;BME280;60509;47.308;-122.428;2023-05-02T04:29:25;100012.57;;;15.52;34.12
72486;BME280;60509;47.308;-122.428;2023-05-02T04:31:51;100012.91;;;15.65;34.18
72486;BME280;60509;47.308;-122.428;2023-05-02T04:34:17;100008.69;;;15.34;34.27
72486;BME280;60509;47.308;-122.428;2023-05-02T04:36:45;99998.21;;;15.90;34.00
72486;BME280;60509;47.308;-122.428;2023-05-02T04:39:09;99998.65;;;15.50;34.08
72486;BME280;60509;47.308;-122.428;2023-05-02T04:41:35;99993.07;;;15.95;33.79
72486;BME280;60509;47.308;-122.428;2023-05-02T04:44:01;99987.65;;;16.05;33.78
72486;BME280;60509;47.308;-122.428;2023-05-02T04:46:27;99984.08;;;15.71;33.98
72486;BME280;60509;47.308;-122.428;2023-05-02T04:48:53;99980.15;;;15.45;34.04
72486;BME280;60509;47.308;-122.428;2023-05-02T04:51:19;99975.98;;;15.75;34.23
72486;BME280;60509;47.308;-122.428;2023-05-02T04:53:45;99967.70;;;15.69;34.23
72486;BME280;60509;47.308;-122.428;2023-05-02T04:56:11;99957.28;;;15.75;34.17
72486;BME280;60509;47.308;-122.428;2023-05-02T04:58:37;99958.48;;;15.55;34.41
72486;BME280;60509;47.308;-122.428;2023-05-02T05:01:03;99953.41;;;15.80;34.12
72486;BME280;60509;47.308;-122.428;2023-05-02T05:03:29;99948.97;;;15.91;34.27
72486;BME280;60509;47.308;-122.428;2023-05-02T05:05:55;99946.93;;;15.55;34.25
72486;BME280;60509;47.308;-122.428;2023-05-02T05:08:21;99945.67;;;15.54;34.32
72486;BME280;60509;47.308;-122.428;2023-05-02T05:10:47;99949.79;;;15.60;34.39
72486;BME280;60509;47.308;-122.428;2023-05-02T05:13:13;99956.37;;;15.40;34.43
72486;BME280;60509;47.308;-122.428;2023-05-02T05:15:39;99965.28;;;16.14;33.86
72486;BME280;60509;47.308;-122.428;2023-05-02T05:18:05;99970.27;;;15.70;34.12
72486;BME280;60509;47.308;-122.428;2023-05-02T05:20:30;99976.86;;;15.63;34.21
72486;BME280;60509;47.308;-122.428;2023-05-02T05:22:56;99981.97;;;15.30;34.27
72486;BME280;60509;47.308;-122.428;2023-05-02T05:25:22;99988.99;;;15.57;34.31
72486;BME280;60509;47.308;-122.428;2023-05-02T05:27:48;99990.31;;;15.66;34.53
72486;BME280;60509;47.308;-122.428;2023-05-02T05:30:14;99989.13;;;15.80;34.48
72486;BME280;60509;47.308;-122.428;2023-05-02T05:32:40;99988.31;;;16.11;34.43
72486;BME280;60509;47.308;-122.428;2023-05-02T05:35:07;100000.26;;;15.51;34.71
72486;BME280;60509;47.308;-122.428;2023-05-02T05:37:32;100013.41;;;15.70;34.72
72486;BME280;60509;47.308;-122.428;2023-05-02T05:39:58;100023.53;;;15.75;34.65
72486;BME280;60509;47.308;-122.428;2023-05-02T05:42:24;100028.76;;;15.54;34.62
72486;BME280;60509;47.308;-122.428;2023-05-02T05:44:50;100021.42;;;15.24;34.52
72486;BME280;60509;47.308;-122.428;2023-05-02T05:47:19;100019.42;;;15.58;34.41
72486;BME280;60509;47.308;-122.428;2023-05-02T05:49:42;100030.51;;;15.52;34.33
72486;BME280;60509;47.308;-122.428;2023-05-02T05:52:08;100036.84;;;15.51;34.28
72486;BME280;60509;47.308;-122.428;2023-05-02T05:54:34;100037.86;;;15.49;34.13
72486;BME280;60509;47.308;-122.428;2023-05-02T05:57:00;100050.77;;;15.48;34.05
72486;BME280;60509;47.308;-122.428;2023-05-02T05:59:26;100050.43;;;15.74;33.87
72486;BME280;60509;47.308;-122.428;2023-05-02T06:01:52;100044.61;;;15.74;33.70
72486;BME280;60509;47.308;-122.428;2023-05-02T06:04:17;100050.02;;;15.79;33.72
72486;BME280;60509;47.308;-122.428;2023-05-02T06:06:43;100054.70;;;15.83;33.73
72486;BME280;60509;47.308;-122.428;2023-05-02T06:09:08;100055.77;;;15.70;33.57
72486;BME280;60509;47.308;-122.428;2023-05-02T06:11:33;100060.61;;;15.34;33.63
72486;BME280;60509;47.308;-122.428;2023-05-02T06:13:58;100065.62;;;15.71;33.51
72486;BME280;60509;47.308;-122.428;2023-05-02T06:16:23;100066.04;;;15.52;33.51
72486;BME280;60509;47.308;-122.428;2023-05-02T06:18:50;100061.57;;;15.68;33.49
72486;BME280;60509;47.308;-122.428;2023-05-02T06:21:14;100053.21;;;15.89;33.58
72486;BME280;60509;47.308;-122.428;2023-05-02T06:23:39;100039.72;;;15.52;33.44
72486;BME280;60509;47.308;-122.428;2023-05-02T06:26:05;100023.60;;;15.48;33.45
72486;BME280;60509;47.308;-122.428;2023-05-02T06:28:31;100006.19;;;15.67;33.36
72486;BME280;60509;47.308;-122.428;2023-05-02T06:30:58;99998.69;;;15.56;33.28
72486;BME280;60509;47.308;-122.428;2023-05-02T06:33:23;99999.00;;;15.66;33.26
72486;BME280;60509;47.308;-122.428;2023-05-02T06:35:51;100003.08;;;16.02;32.99
72486;BME280;60509;47.308;-122.428;2023-05-02T06:38:15;100005.76;;;15.41;33.27
72486;BME280;60509;47.308;-122.428;2023-05-02T06:40:41;100008.67;;;15.73;33.03
72486;BME280;60509;47.308;-122.428;2023-05-02T06:43:07;100023.61;;;15.47;33.14
72486;BME280;60509;47.308;-122.428;2023-05-02T06:45:33;100041.10;;;16.00;32.93
72486;BME280;60509;47.308;-122.428;2023-05-02T06:47:59;100039.93;;;15.89;33.06
72486;BME280;60509;47.308;-122.428;2023-05-02T06:50:25;100027.87;;;15.76;32.91
72486;BME280;60509;47.308;-122.428;2023-05-02T06:52:51;100013.54;;;15.47;33.06
72486;BME280;60509;47.308;-122.428;2023-05-02T06:55:17;99997.01;;;15.58;32.93
72486;BME280;60509;47.308;-122.428;2023-05-02T06:57:43;99996.54;;;15.96;32.59
72486;BME280;60509;47.308;-122.428;2023-05-02T07:00:10;99997.17;;;15.61;32.70
72486;BME280;60509;47.308;-122.428;2023-05-02T07:02:35;100002.33;;;16.03;32.58
72486;BME280;60509;47.308;-122.428;2023-05-02T07:05:01;100000.27;;;15.73;32.61
72486;BME280;60509;47.308;-122.428;2023-05-02T07:07:26;99991.09;;;15.57;32.64
72486;BME280;60509;47.308;-122.428;2023-05-02T07:09:53;99970.43;;;15.52;32.66
72486;BME280;60509;47.308;-122.428;2023-05-02T07:12:18;99961.60;;;15.70;32.55
72486;BME280;60509;47.308;-122.428;2023-05-02T07:14:45;99962.19;;;15.83;32.50
72486;BME280;60509;47.308;-122.428;2023-05-02T07:17:10;99964.25;;;15.75;32.46
72486;BME280;60509;47.308;-122.428;2023-05-02T07:19:37;99962.72;;;15.69;32.51
72486;BME280;60509;47.308;-122.428;2023-05-02T07:22:02;99981.95;;;15.61;32.56
72486;BME280;60509;47.308;-122.428;2023-05-02T07:24:29;100023.60;;;15.68;32.52
72486;BME280;60509;47.308;-122.428;2023-05-02T07:26:54;100047.64;;;15.84;32.35
72486;BME280;60509;47.308;-122.428;2023-05-02T07:29:20;100054.95;;;15.80;32.29
72486;BME280;60509;47.308;-122.428;2023-05-02T07:31:46;100059.34;;;15.84;32.20
72486;BME280;60509;47.308;-122.428;2023-05-02T07:34:12;100060.76;;;15.76;32.25
72486;BME280;60509;47.308;-122.428;2023-05-02T07:36:38;100069.98;;;15.89;32.22
72486;BME280;60509;47.308;-122.428;2023-05-02T07:39:04;100073.98;;;15.47;32.35
72486;BME280;60509;47.308;-122.428;2023-05-02T07:41:30;100069.88;;;15.48;32.31
72486;BME280;60509;47.308;-122.428;2023-05-02T07:43:56;100069.06;;;15.63;32.29
72486;BME280;60509;47.308;-122.428;2023-05-02T07:46:22;100077.63;;;15.56;32.39
72486;BME280;60509;47.308;-122.428;2023-05-02T07:48:48;100071.36;;;15.83;32.15
72486;BME280;60509;47.308;-122.428;2023-05-02T07:51:14;100059.24;;;15.41;32.25
72486;BME280;60509;47.308;-122.428;2023-05-02T07:53:40;100049.13;;;15.59;32.07
72486;BME280;60509;47.308;-122.428;2023-05-02T07:56:07;100034.66;;;15.50;32.18
72486;BME280;60509;47.308;-122.428;2023-05-02T07:58:33;100035.98;;;15.56;32.04
72486;BME280;60509;47.308;-122.428;2023-05-02T08:00:58;100043.05;;;15.62;32.02
72486;BME280;60509;47.308;-122.428;2023-05-02T08:03:24;100046.35;;;15.61;32.09
72486;BME280;60509;47.308;-122.428;2023-05-02T08:05:50;100053.79;;;15.63;32.05
72486;BME280;60509;47.308;-122.428;2023-05-02T08:08:16;100062.93;;;15.49;32.08
72486;BME280;60509;47.308;-122.428;2023-05-02T08:10:42;100083.71;;;15.75;31.98
72486;BME280;60509;47.308;-122.428;2023-05-02T08:13:08;100115.23;;;15.27;32.11
72486;BME280;60509;47.308;-122.428;2023-05-02T08:15:34;100126.95;;;15.53;31.95
72486;BME280;60509;47.308;-122.428;2023-05-02T08:18:00;100130.33;;;15.33;32.13
72486;BME280;60509;47.308;-122.428;2023-05-02T08:20:26;100149.29;;;15.32;32.10
72486;BME280;60509;47.308;-122.428;2023-05-02T08:22:52;100170.83;;;15.45;32.04
72486;BME280;60509;47.308;-122.428;2023-05-02T08:25:18;100184.31;;;15.71;31.81
72486;BME280;60509;47.308;-122.428;2023-05-02T08:27:44;100204.96;;;15.62;31.97
72486;BME280;60509;47.308;-122.428;2023-05-02T08:30:11;100219.72;;;15.31;32.00
72486;BME280;60509;47.308;-122.428;2023-05-02T08:32:36;100217.43;;;15.76;31.67
72486;BME280;60509;47.308;-122.428;2023-05-02T08:35:02;100221.79;;;16.20;31.27
72486;BME280;60509;47.308;-122.428;2023-05-02T08:37:28;100223.68;;;16.10;31.34
72486;BME280;60509;47.308;-122.428;2023-05-02T08:39:54;100226.73;;;16.04;31.32
72486;BME280;60509;47.308;-122.428;2023-05-02T08:42:20;100231.54;;;16.01;31.05
72486;BME280;60509;47.308;-122.428;2023-05-02T08:44:46;100238.31;;;15.84;31.25
72486;BME280;60509;47.308;-122.428;2023-05-02T08:47:13;100232.84;;;15.57;31.45
72486;BME280;60509;47.308;-122.428;2023-05-02T08:49:38;100231.72;;;15.72;31.35
72486;BME280;60509;47.308;-122.428;2023-05-02T08:52:04;100230.86;;;15.69;31.51
72486;BME280;60509;47.308;-122.428;2023-05-02T08:54:30;100197.24;;;16.00;31.06
72486;BME280;60509;47.308;-122.428;2023-05-02T08:56:56;100175.69;;;15.77;31.18
72486;BME280;60509;47.308;-122.428;2023-05-02T08:59:27;100174.55;;;15.72;31.19
72486;BME280;60509;47.308;-122.428;2023-05-02T09:01:50;100140.74;;;15.64;31.42
72486;BME280;60509;47.308;-122.428;2023-05-02T09:04:14;100072.14;;;15.57;31.37
72486;BME280;60509;47.308;-122.428;2023-05-02T09:06:40;99938.09;;;15.83;31.28
72486;BME280;60509;47.308;-122.428;2023-05-02T09:09:06;99858.74;;;16.26;30.75
72486;BME280;60509;47.308;-122.428;2023-05-02T09:11:32;99891.18;;;15.70;31.06
72486;BME280;60509;47.308;-122.428;2023-05-02T09:13:58;99857.50;;;15.56;31.03
72486;BME280;60509;47.308;-122.428;2023-05-02T09:16:25;99812.42;;;15.59;30.91
72486;BME280;60509;47.308;-122.428;2023-05-02T09:18:50;99832.70;;;15.73;30.82
72486;BME280;60509;47.308;-122.428;2023-05-02T09:21:17;99778.27;;;15.93;30.92
72486;BME280;60509;47.308;-122.428;2023-05-02T09:23:43;99725.72;;;16.36;30.30
72486;BME280;60509;47.308;-122.428;2023-05-02T09:26:13;99674.62;;;16.17;30.50
72486;BME280;60509;47.308;-122.428;2023-05-02T09:28:38;99722.33;;;15.81;30.63
72486;BME280;60509;47.308;-122.428;2023-05-02T09:31:07;99833.26;;;16.11;30.45
72486;BME280;60509;47.308;-122.428;2023-05-02T09:33:26;99897.05;;;15.69;30.70
72486;BME280;60509;47.308;-122.428;2023-05-02T09:35:54;99911.36;;;15.61;30.83
72486;BME280;60509;47.308;-122.428;2023-05-02T09:38:19;99928.84;;;15.71;30.74
72486;BME280;60509;47.308;-122.428;2023-05-02T09:40:53;99948.65;;;15.53;30.90
72486;BME280;60509;47.308;-122.428;2023-05-02T09:43:14;99946.04;;;15.70;30.90
72486;BME280;60509;47.308;-122.428;2023-05-02T09:45:36;99936.42;;;15.92;30.60
72486;BME280;60509;47.308;-122.428;2023-05-02T09:48:02;99934.22;;;16.05;30.48
72486;BME280;60509;47.308;-122.428;2023-05-02T09:50:36;99932.01;;;15.73;30.60
72486;BME280;60509;47.308;-122.428;2023-05-02T09:53:01;99942.06;;;15.82;30.73
72486;BME280;60509;47.308;-122.428;2023-05-02T09:55:21;99932.37;;;15.48;30.77
72486;BME280;60509;47.308;-122.428;2023-05-02T09:57:46;99913.06;;;15.52;30.73
72486;BME280;60509;47.308;-122.428;2023-05-02T10:00:13;99924.55;;;15.31;30.92
72486;BME280;60509;47.308;-122.428;2023-05-02T10:02:38;99919.87;;;15.34;30.88
72486;BME280;60509;47.308;-122.428;2023-05-02T10:05:08;99910.07;;;15.04;31.05
72486;BME280;60509;47.308;-122.428;2023-05-02T10:07:30;99894.76;;;16.05;30.35
72486;BME280;60509;47.308;-122.428;2023-05-02T10:09:58;99889.01;;;16.05;30.45
72486;BME280;60509;47.308;-122.428;2023-05-02T10:12:24;99899.44;;;16.29;30.42
72486;BME280;60509;47.308;-122.428;2023-05-02T10:14:49;99903.56;;;16.05;30.43
72486;BME280;60509;47.308;-122.428;2023-05-02T10:17:21;99900.39;;;15.86;30.59
72486;BME280;60509;47.308;-122.428;2023-05-02T10:19:47;99897.65;;;15.90;30.85
72486;BME280;60509;47.308;-122.428;2023-05-02T10:22:07;99897.92;;;16.02;30.61
72486;BME280;60509;47.308;-122.428;2023-05-02T10:24:32;99895.32;;;15.84;30.62
72486;BME280;60509;47.308;-122.428;2023-05-02T10:26:58;99883.43;;;15.57;30.73
72486;BME280;60509;47.308;-122.428;2023-05-02T10:29:23;99888.66;;;15.71;30.59
72486;BME280;60509;47.308;-122.428;2023-05-02T10:31:49;99894.96;;;15.63;30.61
72486;BME280;60509;47.308;-122.428;2023-05-02T10:34:16;99894.59;;;15.77;30.56
72486;BME280;60509;47.308;-122.428;2023-05-02T10:36:41;99890.32;;;15.55;30.62
72486;BME280;60509;47.308;-122.428;2023-05-02T10:39:07;99885.52;;;15.59;30.58
72486;BME280;60509;47.308;-122.428;2023-05-02T10:41:34;99883.95;;;15.68;30.46
72486;BME280;60509;47.308;-122.428;2023-05-02T10:43:59;99884.70;;;15.85;30.19
72486;BME280;60509;47.308;-122.428;2023-05-02T10:46:33;99891.32;;;15.37;30.61
72486;BME280;60509;47.308;-122.428;2023-05-02T10:49:00;99896.43;;;15.30;30.63
72486;BME280;60509;47.308;-122.428;2023-05-02T10:51:27;99902.39;;;15.23;30.81
72486;BME280;60509;47.308;-122.428;2023-05-02T10:53:43;99912.60;;;15.85;30.32
72486;BME280;60509;47.308;-122.428;2023-05-02T10:56:15;99929.58;;;16.08;30.08
72486;BME280;60509;47.308;-122.428;2023-05-02T10:58:35;99932.65;;;15.86;30.23
72486;BME280;60509;47.308;-122.428;2023-05-02T11:01:35;99931.61;;;15.75;30.33
72486;BME280;60509;47.308;-122.428;2023-05-02T11:04:00;99930.46;;;15.82;30.24
72486;BME280;60509;47.308;-122.428;2023-05-02T11:06:06;99936.25;;;15.57;30.46
72486;BME280;60509;47.308;-122.428;2023-05-02T11:08:30;99941.11;;;15.56;30.46
72486;BME280;60509;47.308;-122.428;2023-05-02T11:10:45;99947.03;;;15.58;30.27
72486;BME280;60509;47.308;-122.428;2023-05-02T11:13:11;99945.85;;;15.76;30.16
72486;BME280;60509;47.308;-122.428;2023-05-02T11:16:09;99940.59;;;15.55;30.19
72486;BME280;60509;47.308;-122.428;2023-05-02T11:18:03;99941.55;;;15.78;30.05
72486;BME280;60509;47.308;-122.428;2023-05-02T11:20:29;99949.59;;;15.46;30.31
72486;BME280;60509;47.308;-122.428;2023-05-02T11:23:18;99950.91;;;15.66;30.09
72486;BME280;60509;47.308;-122.428;2023-05-02T11:25:37;99947.06;;;15.54;30.05
72486;BME280;60509;47.308;-122.428;2023-05-02T11:27:46;99941.72;;;15.63;29.95
72486;BME280;60509;47.308;-122.428;2023-05-02T11:30:12;99927.94;;;16.14;29.57
72486;BME280;60509;47.308;-122.428;2023-05-02T11:33:14;99921.21;;;16.19;29.62
72486;BME280;60509;47.308;-122.428;2023-05-02T11:35:05;99928.60;;;16.05;29.83
72486;BME280;60509;47.308;-122.428;2023-05-02T11:37:31;99933.97;;;15.76;30.10
72486;BME280;60509;47.308;-122.428;2023-05-02T11:40:10;99934.78;;;15.63;30.07
72486;BME280;60509;47.308;-122.428;2023-05-02T11:42:32;99933.32;;;15.39;30.21
72486;BME280;60509;47.308;-122.428;2023-05-02T11:44:56;99925.12;;;15.46;30.27
72486;BME280;60509;47.308;-122.428;2023-05-02T11:47:14;99916.72;;;15.49;30.10
72486;BME280;60509;47.308;-122.428;2023-05-02T11:49:40;99915.12;;;15.64;29.98
72486;BME280;60509;47.308;-122.428;2023-05-02T11:52:06;99924.75;;;15.46;30.14
72486;BME280;60509;47.308;-122.428;2023-05-02T11:54:32;99920.77;;;15.55;30.03
72486;BME280;60509;47.308;-122.428;2023-05-02T11:57:00;99917.19;;;15.71;29.96
72486;BME280;60509;47.308;-122.428;2023-05-02T11:59:24;99918.44;;;15.29;30.29
72486;BME280;60509;47.308;-122.428;2023-05-02T12:01:50;99918.14;;;15.50;30.08
72486;BME280;60509;47.308;-122.428;2023-05-02T12:04:16;99924.65;;;15.08;30.31
72486;BME280;60509;47.308;-122.428;2023-05-02T12:06:55;99915.56;;;15.48;30.11
72486;BME280;60509;47.308;-122.428;2023-05-02T12:09:12;99896.64;;;15.90;29.68
72486;BME280;60509;47.308;-122.428;2023-05-02T12:11:35;99887.15;;;16.47;29.82
72486;BME280;60509;47.308;-122.428;2023-05-02T12:14:01;99891.08;;;15.91;30.04